This is the latest recevied weather packets stored in our database for station/object KF0JHJ. If no packets are shown the sender has not sent any weather packets the latest 1 day(s).
| Time | Temp. | Humidity | Pressure | Rain* | Wind** | Luminosity | Snow |
|---|---|---|---|---|---|---|---|
| 1778053406 | -0.56° C | 77% | 1012.6 hPa | - | - | 0 W/m² | - |
| 1778052801 | -0.56° C | 77% | 1012.3 hPa | - | - | 0 W/m² | - |
| 1778052498 | -0.56° C | 77% | 1012.2 hPa | - | - | 0 W/m² | - |
| 1778051893 | -0.56° C | 75% | 1012.2 hPa | - | - | 0 W/m² | - |
| 1778051591 | 0° C | 74% | 1012 hPa | - | - | 0 W/m² | - |
| 1778051288 | 0° C | 73% | 1012.1 hPa | - | - | 0 W/m² | - |
| 1778050985 | 0.56° C | 73% | 1012.1 hPa | - | - | 0 W/m² | - |
| 1778050682 | 0.56° C | 72% | 1012.3 hPa | - | - | 0 W/m² | - |
| 1778050076 | 0.56° C | 72% | 1012.1 hPa | - | - | 0 W/m² | - |
| 1778049469 | 0° C | 74% | 1012.3 hPa | - | - | 0 W/m² | - |
| 1778048865 | 0° C | 73% | 1012.1 hPa | - | - | 0 W/m² | - |
| 1778048562 | 0.56° C | 72% | 1012.1 hPa | - | - | 0 W/m² | - |
| 1778047955 | 1.11° C | 70% | 1012.1 hPa | - | - | 0 W/m² | - |
| 1778047047 | 0.56° C | 74% | 1012.4 hPa | - | - | 0 W/m² | - |
| 1778046137 | 0° C | 75% | 1012.2 hPa | - | - | 0 W/m² | - |
| 1778045835 | 0° C | 73% | 1012 hPa | - | - | 0 W/m² | - |
| 1778045231 | 0° C | 73% | 1012.1 hPa | - | - | 0 W/m² | - |
| 1778044929 | 0.56° C | 72% | 1012.2 hPa | - | - | 0 W/m² | - |
| 1778044626 | 0.56° C | 71% | 1012.2 hPa | - | - | 0 W/m² | - |
| 1778044021 | 1.11° C | 69% | 1012 hPa | - | - | 0 W/m² | - |
| 1778043414 | 1.11° C | 70% | 1011.9 hPa | - | - | 0 W/m² | - |
| 1778042505 | 1.67° C | 65% | 1011.7 hPa | - | - | 0 W/m² | - |
| 1778041297 | 2.78° C | 63% | 1011.6 hPa | - | - | 0 W/m² | - |
| 1778040995 | 2.78° C | 63% | 1011.6 hPa | - | - | 0 W/m² | - |
| 1778040389 | 2.78° C | 64% | 1011.6 hPa | - | - | 0 W/m² | - |
* Rain since midnight (hover to see other rain measurements)
** Current wind speed in m/s (hover to see current wind gust speed)